createdAt,value
2018-09-28T00:02:19.264Z,9.20
2018-09-28T00:04:48.556Z,9.09
2018-09-28T00:07:17.780Z,8.89
2018-09-28T00:09:47.131Z,8.85
2018-09-28T00:12:16.268Z,8.88
2018-09-28T00:14:45.192Z,8.75
2018-09-28T00:17:14.649Z,8.97
2018-09-28T00:19:43.765Z,8.82
2018-09-28T00:22:13.016Z,8.78
2018-09-28T00:24:42.460Z,8.58
2018-09-28T00:27:11.716Z,8.77
2018-09-28T00:29:40.859Z,8.84
2018-09-28T00:32:10.107Z,8.72
2018-09-28T00:34:39.445Z,8.63
2018-09-28T00:37:08.685Z,8.41
2018-09-28T00:39:37.903Z,8.42
2018-09-28T00:42:07.094Z,8.64
2018-09-28T00:44:36.411Z,8.65
2018-09-28T00:47:05.434Z,8.58
2018-09-28T00:49:34.488Z,8.63
2018-09-28T00:52:03.531Z,8.48
2018-09-28T00:54:32.598Z,8.35
2018-09-28T00:57:01.767Z,8.35
2018-09-28T00:59:30.983Z,8.36
2018-09-28T01:02:00.219Z,8.43
2018-09-28T01:04:29.455Z,8.46
2018-09-28T01:06:58.396Z,8.65
2018-09-28T01:09:27.387Z,8.61
2018-09-28T01:11:56.786Z,8.46
2018-09-28T01:14:25.930Z,8.60
2018-09-28T01:16:55.187Z,8.50
2018-09-28T01:19:24.630Z,8.40
2018-09-28T01:21:53.741Z,8.28
2018-09-28T01:24:22.979Z,8.16
2018-09-28T01:26:51.859Z,7.99
2018-09-28T01:29:20.992Z,8.17
2018-09-28T01:31:50.198Z,8.28
2018-09-28T01:34:19.459Z,8.26
2018-09-28T01:36:48.611Z,8.26
2018-09-28T01:39:17.856Z,8.32
2018-09-28T01:41:47.081Z,8.36
2018-09-28T01:44:16.298Z,8.36
2018-09-28T01:46:45.480Z,8.25
2018-09-28T01:49:14.907Z,8.29
2018-09-28T01:51:43.960Z,8.15
2018-09-28T01:54:13.286Z,8.18
2018-09-28T01:56:42.501Z,8.11
2018-09-28T01:59:11.692Z,8.23
2018-09-28T02:01:41.037Z,8.19
2018-09-28T02:04:10.268Z,8.24
2018-09-28T02:06:39.499Z,8.19
2018-09-28T02:09:08.930Z,8.20
2018-09-28T02:11:38.137Z,8.22
2018-09-28T02:14:07.386Z,8.15
2018-09-28T02:16:36.857Z,8.22
2018-09-28T02:19:06.348Z,8.11
2018-09-28T02:21:35.543Z,8.07
2018-09-28T02:24:04.568Z,8.07
2018-09-28T02:26:33.574Z,8.13
2018-09-28T02:29:02.830Z,8.15
2018-09-28T02:31:32.103Z,8.02
2018-09-28T02:34:01.296Z,7.90
2018-09-28T02:36:30.618Z,7.77
2018-09-28T02:38:59.962Z,7.70
2018-09-28T02:41:29.325Z,7.70
2018-09-28T02:43:58.260Z,7.74
2018-09-28T02:46:27.615Z,7.78
2018-09-28T02:48:56.819Z,7.64
2018-09-28T02:51:26.147Z,7.66
2018-09-28T02:53:55.360Z,7.81
2018-09-28T02:56:24.539Z,7.87
2018-09-28T02:58:53.911Z,7.98
2018-09-28T03:01:22.836Z,8.00
2018-09-28T03:03:51.911Z,7.96
2018-09-28T03:06:21.360Z,7.85
2018-09-28T03:08:50.469Z,7.78
2018-09-28T03:11:19.730Z,7.63
2018-09-28T03:13:49.036Z,7.44
2018-09-28T03:16:18.271Z,7.42
2018-09-28T03:18:47.158Z,7.39
2018-09-28T03:21:16.340Z,7.36
2018-09-28T03:23:45.499Z,7.46
2018-09-28T03:26:14.504Z,7.49
2018-09-28T03:28:43.660Z,7.36
2018-09-28T03:31:12.833Z,7.27
2018-09-28T03:33:41.752Z,7.20
2018-09-28T03:36:11.027Z,7.15
2018-09-28T03:38:40.139Z,7.14
2018-09-28T03:41:09.379Z,7.22
2018-09-28T03:43:38.779Z,7.27
2018-09-28T03:46:08.184Z,7.24
2018-09-28T03:48:37.153Z,7.21
2018-09-28T03:51:06.411Z,7.19
2018-09-28T03:53:35.416Z,7.10
2018-09-28T03:56:04.530Z,7.05
2018-09-28T03:58:33.854Z,7.05
2018-09-28T04:01:02.903Z,7.07
2018-09-28T04:03:32.192Z,7.06
2018-09-28T04:06:01.405Z,7.14
2018-09-28T04:08:30.796Z,7.01
2018-09-28T04:11:00.003Z,7.00
2018-09-28T04:13:29.030Z,7.01
2018-09-28T04:15:58.301Z,7.06
2018-09-28T04:18:27.502Z,7.07
2018-09-28T04:20:56.905Z,7.00
2018-09-28T04:23:26.086Z,7.27
2018-09-28T04:25:55.345Z,7.25
2018-09-28T04:28:24.783Z,7.30
2018-09-28T04:30:54.073Z,7.39
2018-09-28T04:33:23.161Z,7.38
2018-09-28T04:35:52.583Z,7.39
2018-09-28T04:38:21.901Z,7.17
2018-09-28T04:40:51.288Z,7.15
2018-09-28T04:43:20.486Z,7.31
2018-09-28T04:45:49.727Z,7.36
2018-09-28T04:48:18.736Z,7.36
2018-09-28T04:50:47.778Z,7.41
2018-09-28T04:53:17.051Z,7.47
2018-09-28T04:55:46.403Z,7.46
2018-09-28T04:58:15.680Z,7.46
2018-09-28T05:00:44.950Z,7.52
2018-09-28T05:03:13.983Z,7.55
2018-09-28T05:05:43.351Z,7.61
2018-09-28T05:08:12.634Z,7.54
2018-09-28T05:10:41.728Z,7.44
2018-09-28T05:13:11.203Z,7.49
2018-09-28T05:15:40.468Z,7.62
2018-09-28T05:18:09.604Z,7.73
2018-09-28T05:20:38.750Z,7.74
2018-09-28T05:23:08.068Z,7.80
2018-09-28T05:25:37.397Z,7.77
2018-09-28T05:28:06.695Z,7.86
2018-09-28T05:30:35.659Z,7.95
2018-09-28T05:33:05.102Z,8.08
2018-09-28T05:35:34.399Z,8.20
2018-09-28T05:38:03.771Z,8.32
2018-09-28T05:40:33.306Z,8.42
2018-09-28T05:43:02.528Z,8.53
2018-09-28T05:45:31.424Z,8.63
2018-09-28T05:48:00.715Z,8.73
2018-09-28T05:50:29.864Z,8.83
2018-09-28T05:52:59.285Z,8.94
2018-09-28T05:55:28.522Z,9.01
2018-09-28T05:58:02.799Z,9.15
2018-09-28T06:00:37.023Z,9.32
2018-09-28T06:03:12.931Z,9.41
2018-09-28T06:05:42.992Z,9.41
2018-09-28T06:08:12.542Z,9.53
2018-09-28T06:10:41.583Z,9.79
2018-09-28T06:13:10.700Z,9.79
2018-09-28T06:15:40.112Z,9.85
2018-09-28T06:18:09.233Z,9.94
2018-09-28T06:20:38.089Z,10.03
2018-09-28T06:23:07.310Z,10.15
2018-09-28T06:25:36.647Z,10.25
2018-09-28T06:28:06.251Z,10.41
2018-09-28T06:30:35.611Z,10.54
2018-09-28T06:33:04.809Z,10.56
2018-09-28T06:35:34.170Z,10.63
2018-09-28T06:38:03.455Z,10.62
2018-09-28T06:40:32.760Z,10.74
2018-09-28T06:43:01.811Z,10.81
2018-09-28T06:45:31.102Z,10.86
2018-09-28T06:48:00.385Z,10.95
2018-09-28T06:50:29.677Z,11.09
2018-09-28T06:52:58.948Z,11.23
2018-09-28T06:55:28.391Z,11.29
2018-09-28T06:57:57.559Z,11.44
2018-09-28T07:00:26.510Z,11.56
2018-09-28T07:02:55.708Z,11.73
2018-09-28T07:05:24.751Z,11.91
2018-09-28T07:07:53.979Z,12.24
2018-09-28T07:10:23.484Z,12.20
2018-09-28T07:12:52.830Z,12.30
2018-09-28T07:15:22.133Z,12.44
2018-09-28T07:17:51.437Z,12.43
2018-09-28T07:20:20.419Z,12.55
2018-09-28T07:22:49.564Z,12.70
2018-09-28T07:25:18.868Z,12.80
2018-09-28T07:27:48.204Z,12.92
2018-09-28T07:30:17.376Z,13.03
2018-09-28T07:32:46.713Z,13.11
2018-09-28T07:35:16.157Z,13.21
2018-09-28T07:37:45.039Z,13.28
2018-09-28T07:40:14.152Z,13.34
2018-09-28T07:42:43.376Z,13.52
2018-09-28T07:45:12.524Z,14.01
2018-09-28T07:47:41.749Z,14.44
2018-09-28T07:50:11.141Z,14.85
2018-09-28T07:52:40.444Z,15.03
2018-09-28T07:55:09.982Z,15.05
2018-09-28T07:57:39.338Z,15.16
2018-09-28T08:00:08.559Z,15.35
2018-09-28T08:02:38.007Z,15.51
2018-09-28T08:05:07.283Z,15.53
2018-09-28T08:07:36.919Z,15.40
2018-09-28T08:10:06.343Z,15.25
2018-09-28T08:12:35.674Z,15.26
2018-09-28T08:15:05.271Z,15.34
2018-09-28T08:17:34.755Z,15.40
2018-09-28T08:20:04.165Z,15.46
2018-09-28T08:22:33.188Z,15.39
2018-09-28T08:25:02.573Z,15.39
2018-09-28T08:27:31.727Z,15.47
2018-09-28T08:30:01.067Z,15.55
2018-09-28T08:32:30.327Z,15.59
2018-09-28T08:34:59.608Z,15.65
2018-09-28T08:37:29.127Z,15.83
2018-09-28T08:39:58.407Z,15.97
2018-09-28T08:42:27.760Z,16.05
2018-09-28T08:44:56.803Z,15.94
2018-09-28T08:47:26.157Z,15.86
2018-09-28T08:49:55.513Z,15.89
2018-09-28T08:52:24.962Z,16.00
2018-09-28T08:54:54.420Z,16.14
2018-09-28T08:57:23.806Z,16.24
2018-09-28T08:59:52.919Z,16.32
2018-09-28T09:02:22.253Z,16.35
2018-09-28T09:04:51.659Z,16.46
2018-09-28T09:07:20.880Z,16.57
2018-09-28T09:09:50.203Z,16.73
2018-09-28T09:12:19.391Z,16.92
2018-09-28T09:14:48.493Z,17.18
2018-09-28T09:17:17.802Z,17.38
2018-09-28T09:19:47.046Z,17.61
2018-09-28T09:22:16.404Z,17.77
2018-09-28T09:24:45.748Z,17.92
2018-09-28T09:27:15.037Z,17.81
2018-09-28T09:29:44.321Z,17.72
2018-09-28T09:32:13.695Z,17.65
2018-09-28T09:34:42.915Z,17.70
2018-09-28T09:37:12.268Z,17.83
2018-09-28T09:39:41.427Z,17.69
2018-09-28T09:42:10.828Z,17.66
2018-09-28T09:44:40.523Z,17.70
2018-09-28T09:47:10.054Z,17.92
2018-09-28T09:49:39.414Z,18.15
2018-09-28T09:52:08.768Z,18.42
2018-09-28T09:54:38.126Z,18.39
2018-09-28T09:57:07.288Z,18.31
2018-09-28T09:59:36.429Z,18.65
2018-09-28T10:02:10.648Z,19.25
2018-09-28T10:04:39.831Z,20.00
2018-09-28T10:07:09.359Z,20.84
2018-09-28T10:09:38.725Z,21.99
2018-09-28T10:12:08.014Z,23.43
2018-09-28T10:14:37.074Z,24.77
2018-09-28T10:17:06.517Z,26.12
2018-09-28T10:19:35.897Z,27.64
2018-09-28T10:22:05.011Z,29.55
2018-09-28T10:24:34.255Z,31.39
2018-09-28T10:27:03.452Z,32.84
2018-09-28T10:29:32.623Z,33.26
2018-09-28T10:32:01.743Z,32.57
2018-09-28T10:34:31.147Z,31.88
2018-09-28T10:37:00.731Z,32.23
2018-09-28T10:39:29.837Z,32.70
2018-09-28T10:41:58.935Z,34.00
2018-09-28T10:44:28.011Z,35.34
2018-09-28T10:46:57.127Z,36.52
2018-09-28T10:49:26.303Z,37.61
2018-09-28T10:51:55.450Z,38.82
2018-09-28T10:54:24.511Z,39.77
2018-09-28T10:56:53.611Z,39.96
2018-09-28T10:59:22.720Z,39.92
2018-09-28T11:01:51.768Z,38.60
2018-09-28T11:04:20.854Z,36.46
2018-09-28T11:06:49.989Z,36.69
2018-09-28T11:09:19.089Z,36.09
2018-09-28T11:11:48.288Z,35.47
2018-09-28T11:14:17.631Z,35.24
2018-09-28T11:16:46.668Z,35.76
2018-09-28T11:19:15.767Z,36.24
2018-09-28T11:21:44.962Z,36.79
2018-09-28T11:24:13.963Z,37.09
2018-09-28T11:26:43.015Z,36.83
2018-09-28T11:29:12.222Z,36.39
2018-09-28T11:31:41.254Z,35.71
2018-09-28T11:34:10.360Z,35.79
2018-09-28T11:36:39.429Z,36.69
2018-09-28T11:39:08.916Z,37.05
2018-09-28T11:41:38.008Z,37.51
2018-09-28T11:44:07.143Z,37.12
2018-09-28T11:46:36.197Z,36.47
2018-09-28T11:49:05.379Z,35.87
2018-09-28T11:51:34.533Z,35.71
2018-09-28T11:54:03.904Z,36.48
2018-09-28T11:56:33.000Z,37.18
2018-09-28T11:59:02.076Z,36.68
2018-09-28T12:01:31.143Z,36.51
2018-09-28T12:04:00.199Z,36.62
2018-09-28T12:06:29.413Z,36.77
2018-09-28T12:08:58.299Z,36.58
2018-09-28T12:11:27.592Z,36.92
2018-09-28T12:13:56.588Z,36.74
2018-09-28T12:16:25.554Z,37.25
2018-09-28T12:18:54.567Z,37.67
2018-09-28T12:21:23.585Z,37.96
2018-09-28T12:23:52.489Z,37.98
2018-09-28T12:26:21.548Z,38.28
2018-09-28T12:28:50.388Z,37.58
2018-09-28T12:31:19.324Z,37.05
2018-09-28T12:33:48.409Z,37.25
2018-09-28T12:36:17.351Z,37.73
2018-09-28T12:38:46.352Z,36.95
2018-09-28T12:41:15.294Z,37.42
2018-09-28T12:43:44.219Z,37.36
2018-09-28T12:46:13.235Z,36.79
2018-09-28T12:48:42.148Z,36.10
2018-09-28T12:51:10.946Z,36.12
2018-09-28T12:53:40.185Z,34.93
2018-09-28T12:56:09.212Z,34.92
2018-09-28T12:58:38.145Z,35.54
2018-09-28T13:01:07.203Z,35.92
2018-09-28T13:03:36.197Z,35.33
2018-09-28T13:06:06.071Z,35.33
2018-09-28T13:08:35.046Z,35.40
2018-09-28T13:11:04.373Z,35.16
2018-09-28T13:13:33.395Z,33.55
2018-09-28T13:16:02.403Z,32.13
2018-09-28T13:18:31.441Z,30.98
2018-09-28T13:21:00.539Z,29.42
2018-09-28T13:23:29.493Z,28.73
2018-09-28T13:25:58.503Z,27.92
2018-09-28T13:28:27.654Z,27.59
2018-09-28T13:30:56.547Z,26.99
2018-09-28T13:33:25.736Z,26.74
2018-09-28T13:35:54.655Z,26.15
2018-09-28T13:38:23.781Z,26.07
2018-09-28T13:40:52.667Z,25.88
2018-09-28T13:43:21.602Z,25.63
2018-09-28T13:45:50.863Z,24.92
2018-09-28T13:48:20.307Z,24.50
2018-09-28T13:50:49.634Z,24.06
2018-09-28T13:53:18.473Z,23.85
2018-09-28T13:55:47.463Z,23.72
2018-09-28T13:58:16.652Z,23.59
2018-09-28T14:00:46.014Z,23.55
2018-09-28T14:03:15.216Z,23.24
2018-09-28T14:05:44.459Z,23.07
2018-09-28T14:08:13.779Z,23.00
2018-09-28T14:10:42.772Z,23.03
2018-09-28T14:13:12.122Z,22.98
2018-09-28T14:15:41.359Z,22.86
2018-09-28T14:18:10.718Z,22.27
2018-09-28T14:20:40.084Z,22.36
2018-09-28T14:23:09.105Z,22.31
2018-09-28T14:25:38.487Z,22.22
2018-09-28T14:28:07.804Z,22.10
2018-09-28T14:30:37.127Z,22.07
2018-09-28T14:33:06.479Z,22.11
2018-09-28T14:35:36.891Z,22.14
2018-09-28T14:38:06.121Z,22.00
2018-09-28T14:40:35.642Z,21.93
2018-09-28T14:43:05.213Z,21.93
2018-09-28T14:45:34.330Z,21.74
2018-09-28T14:48:03.810Z,21.67
2018-09-28T14:50:33.024Z,21.72
2018-09-28T14:53:02.290Z,21.61
2018-09-28T14:55:31.696Z,21.57
2018-09-28T14:58:00.939Z,21.47
2018-09-28T15:00:30.157Z,21.45
2018-09-28T15:02:59.447Z,21.38
2018-09-28T15:05:28.578Z,21.23
2018-09-28T15:07:57.467Z,21.22
2018-09-28T15:10:26.918Z,21.20
2018-09-28T15:12:55.695Z,21.16
2018-09-28T15:15:24.891Z,21.14
2018-09-28T15:17:54.160Z,20.97
2018-09-28T15:20:23.455Z,20.78
2018-09-28T15:22:52.888Z,20.64
2018-09-28T15:25:22.145Z,20.56
2018-09-28T15:27:51.629Z,20.43
2018-09-28T15:30:20.956Z,20.26
2018-09-28T15:32:50.158Z,20.16
2018-09-28T15:35:20.371Z,20.10
2018-09-28T15:37:49.692Z,19.97
2018-09-28T15:40:18.970Z,19.84
2018-09-28T15:42:48.265Z,19.76
2018-09-28T15:45:17.364Z,19.65
2018-09-28T15:47:46.632Z,19.47
2018-09-28T15:50:15.824Z,19.34
2018-09-28T15:52:46.079Z,19.13
2018-09-28T15:55:15.455Z,18.86
2018-09-28T15:57:44.275Z,18.67
2018-09-28T16:00:13.261Z,18.47
2018-09-28T16:02:42.641Z,18.24
2018-09-28T16:05:12.132Z,18.10
2018-09-28T16:07:41.085Z,17.89
2018-09-28T16:10:10.318Z,17.80
2018-09-28T16:12:39.782Z,17.67
2018-09-28T16:15:08.858Z,17.58
2018-09-28T16:17:38.628Z,17.49
2018-09-28T16:20:08.063Z,17.32
2018-09-28T16:22:37.160Z,17.19
2018-09-28T16:25:06.546Z,17.22
2018-09-28T16:27:35.883Z,17.16
2018-09-28T16:30:05.256Z,17.03
2018-09-28T16:32:37.639Z,16.97
2018-09-28T16:35:06.986Z,16.88
2018-09-28T16:37:36.276Z,16.81
2018-09-28T16:40:05.491Z,16.74
2018-09-28T16:42:34.860Z,16.69
2018-09-28T16:45:04.144Z,16.58
2018-09-28T16:47:33.434Z,16.46
2018-09-28T16:50:02.445Z,16.35
2018-09-28T16:52:31.549Z,16.33
2018-09-28T16:55:00.821Z,16.33
2018-09-28T16:57:30.722Z,16.24
2018-09-28T16:59:59.735Z,16.20
2018-09-28T17:02:28.831Z,16.18
2018-09-28T17:04:58.351Z,16.13
2018-09-28T17:07:27.588Z,16.09
2018-09-28T17:09:56.658Z,16.10
2018-09-28T17:12:26.020Z,16.06
2018-09-28T17:14:55.224Z,16.05
2018-09-28T17:17:24.471Z,16.08
2018-09-28T17:19:53.755Z,16.07
2018-09-28T17:22:23.009Z,16.10
2018-09-28T17:24:52.957Z,16.04
2018-09-28T17:27:22.271Z,16.03
2018-09-28T17:29:54.316Z,15.98
2018-09-28T17:32:23.892Z,15.90
2018-09-28T17:34:53.269Z,15.78
2018-09-28T17:37:22.596Z,15.67
2018-09-28T17:39:51.679Z,15.64
2018-09-28T17:42:20.722Z,15.65
2018-09-28T17:44:49.951Z,15.61
2018-09-28T17:47:20.465Z,15.61
2018-09-28T17:49:49.603Z,15.61
2018-09-28T17:52:18.819Z,15.59
2018-09-28T17:54:49.172Z,15.61
2018-09-28T17:57:18.368Z,15.58
2018-09-28T17:59:47.838Z,15.54
2018-09-28T18:02:17.080Z,15.55
2018-09-28T18:04:47.899Z,15.50
2018-09-28T18:07:17.262Z,15.50
2018-09-28T18:09:46.438Z,15.50
2018-09-28T18:12:15.571Z,15.52
2018-09-28T18:14:45.107Z,15.53
2018-09-28T18:17:14.807Z,15.55
2018-09-28T18:19:44.048Z,15.50
2018-09-28T18:22:14.265Z,15.56
2018-09-28T18:24:44.407Z,15.58
2018-09-28T18:27:15.632Z,15.56
2018-09-28T18:29:45.000Z,15.45
2018-09-28T18:32:14.120Z,15.57
2018-09-28T18:34:43.255Z,15.62
2018-09-28T18:37:13.390Z,15.62
2018-09-28T18:39:42.610Z,15.66
2018-09-28T18:42:12.249Z,15.64
2018-09-28T18:44:41.561Z,15.64
2018-09-28T18:47:10.915Z,15.61
2018-09-28T18:49:40.556Z,15.62
2018-09-28T18:52:09.910Z,15.61
2018-09-28T18:54:38.890Z,15.55
2018-09-28T18:57:08.441Z,15.43
2018-09-28T18:59:37.897Z,15.48
2018-09-28T19:02:07.033Z,15.48
2018-09-28T19:04:36.810Z,15.38
2018-09-28T19:07:06.327Z,15.35
2018-09-28T19:09:36.421Z,15.35
2018-09-28T19:12:05.958Z,15.28
2018-09-28T19:14:34.953Z,15.42
2018-09-28T19:17:04.397Z,15.50
2018-09-28T19:19:33.874Z,15.53
2018-09-28T19:22:02.995Z,15.54
2018-09-28T19:24:32.398Z,15.50
2018-09-28T19:27:01.676Z,15.52
2018-09-28T19:29:31.021Z,15.61
2018-09-28T19:32:00.018Z,15.62
2018-09-28T19:34:29.376Z,15.68
2018-09-28T19:36:59.122Z,15.69
2018-09-28T19:39:28.498Z,15.76
2018-09-28T19:41:58.657Z,15.75
2018-09-28T19:44:27.934Z,15.72
2018-09-28T19:46:56.911Z,15.64
2018-09-28T19:49:26.883Z,15.52
2018-09-28T19:51:57.559Z,15.44
2018-09-28T19:54:27.723Z,15.35
2018-09-28T19:56:57.159Z,15.14
2018-09-28T19:59:26.604Z,15.05
2018-09-28T20:01:56.048Z,14.99
2018-09-28T20:04:25.407Z,14.94
2018-09-28T20:06:58.105Z,14.92
2018-09-28T20:09:27.963Z,14.88
2018-09-28T20:11:57.302Z,14.92
2018-09-28T20:14:26.679Z,14.99
2018-09-28T20:16:56.240Z,15.10
2018-09-28T20:19:25.461Z,15.11
2018-09-28T20:21:54.835Z,15.03
2018-09-28T20:24:24.023Z,14.90
2018-09-28T20:26:53.135Z,14.83
2018-09-28T20:29:22.941Z,14.73
2018-09-28T20:31:52.323Z,14.68
2018-09-28T20:34:21.836Z,14.70
2018-09-28T20:36:51.177Z,14.66
2018-09-28T20:39:20.261Z,14.64
2018-09-28T20:41:49.828Z,14.58
2018-09-28T20:44:18.788Z,14.48
2018-09-28T20:46:47.719Z,14.36
2018-09-28T20:49:17.080Z,14.34
2018-09-28T20:51:46.408Z,14.28
2018-09-28T20:54:15.535Z,14.29
2018-09-28T20:56:44.823Z,14.32
2018-09-28T20:59:13.946Z,14.31
2018-09-28T21:01:43.353Z,14.33
2018-09-28T21:04:12.507Z,14.33
2018-09-28T21:06:41.678Z,14.36
2018-09-28T21:09:11.499Z,14.39
2018-09-28T21:11:40.851Z,14.34
2018-09-28T21:14:10.020Z,14.32
2018-09-28T21:16:39.088Z,14.30
2018-09-28T21:19:08.300Z,14.32
2018-09-28T21:21:37.603Z,14.32
2018-09-28T21:24:06.648Z,14.30
2018-09-28T21:26:35.763Z,14.18
2018-09-28T21:29:05.222Z,14.28
2018-09-28T21:31:34.541Z,14.33
2018-09-28T21:34:03.788Z,14.36
2018-09-28T21:36:32.854Z,14.39
2018-09-28T21:39:02.032Z,14.39
2018-09-28T21:41:31.429Z,14.34
2018-09-28T21:44:00.904Z,14.34
2018-09-28T21:46:30.296Z,14.34
2018-09-28T21:48:59.365Z,14.39
2018-09-28T21:51:28.823Z,14.42
2018-09-28T21:53:58.227Z,14.39
2018-09-28T21:56:27.235Z,14.32
2018-09-28T21:58:56.625Z,14.45
2018-09-28T22:01:25.887Z,14.47
2018-09-28T22:03:55.183Z,14.46
2018-09-28T22:06:24.375Z,14.45
2018-09-28T22:08:53.558Z,14.40
2018-09-28T22:11:22.911Z,14.25
2018-09-28T22:13:52.472Z,14.32
2018-09-28T22:16:21.351Z,14.27
2018-09-28T22:18:50.596Z,14.20
2018-09-28T22:21:19.833Z,14.13
2018-09-28T22:23:49.211Z,14.05
2018-09-28T22:26:18.579Z,14.02
2018-09-28T22:28:47.848Z,14.05
2018-09-28T22:31:17.068Z,14.02
2018-09-28T22:33:46.051Z,14.01
2018-09-28T22:36:15.101Z,14.03
2018-09-28T22:38:44.179Z,13.98
2018-09-28T22:41:13.423Z,13.89
2018-09-28T22:43:42.797Z,13.99
2018-09-28T22:46:11.784Z,14.09
2018-09-28T22:48:41.172Z,14.02
2018-09-28T22:51:10.076Z,14.03
2018-09-28T22:53:39.223Z,14.03
2018-09-28T22:56:08.546Z,14.10
2018-09-28T22:58:37.668Z,14.03
2018-09-28T23:01:07.254Z,13.94
2018-09-28T23:03:36.399Z,14.08
2018-09-28T23:06:05.577Z,13.94
2018-09-28T23:08:34.861Z,13.79
2018-09-28T23:11:03.667Z,13.68
2018-09-28T23:13:32.555Z,13.62
2018-09-28T23:16:01.921Z,13.58
2018-09-28T23:18:31.175Z,13.53
2018-09-28T23:21:00.385Z,13.47
2018-09-28T23:23:29.303Z,13.29
2018-09-28T23:25:58.346Z,13.10
2018-09-28T23:28:27.723Z,13.06
2018-09-28T23:30:56.958Z,13.03
2018-09-28T23:33:25.835Z,12.95
2018-09-28T23:35:55.057Z,12.78
2018-09-28T23:38:24.401Z,12.67
2018-09-28T23:40:53.647Z,12.56
2018-09-28T23:43:22.882Z,12.43
2018-09-28T23:45:52.290Z,12.37
2018-09-28T23:48:21.239Z,12.31
2018-09-28T23:50:50.480Z,12.23
2018-09-28T23:55:55.758Z,12.14
2018-09-28T23:58:24.847Z,12.08
